createdAt,value
2019-02-24T00:02:21.730Z,2.03
2019-02-24T00:04:50.940Z,2.03
2019-02-24T00:07:20.102Z,2.05
2019-02-24T00:09:49.237Z,2.03
2019-02-24T00:12:18.467Z,2.01
2019-02-24T00:14:47.687Z,2.00
2019-02-24T00:17:16.808Z,1.98
2019-02-24T00:19:45.951Z,1.94
2019-02-24T00:22:15.147Z,1.95
2019-02-24T00:24:44.358Z,1.95
2019-02-24T00:27:13.519Z,1.88
2019-02-24T00:29:42.696Z,1.88
2019-02-24T00:32:11.833Z,1.88
2019-02-24T00:34:40.999Z,1.85
2019-02-24T00:37:10.171Z,1.84
2019-02-24T00:39:39.373Z,1.82
2019-02-24T00:42:08.590Z,1.81
2019-02-24T00:44:37.747Z,1.77
2019-02-24T00:47:06.947Z,1.77
2019-02-24T00:49:36.108Z,1.76
2019-02-24T00:52:05.253Z,1.75
2019-02-24T00:54:34.414Z,1.73
2019-02-24T00:57:03.561Z,1.72
2019-02-24T00:59:32.768Z,1.67
2019-02-24T01:02:01.917Z,1.67
2019-02-24T01:04:31.104Z,1.65
2019-02-24T01:07:00.228Z,1.64
2019-02-24T01:09:29.384Z,1.64
2019-02-24T01:11:58.574Z,1.63
2019-02-24T01:14:27.714Z,1.61
2019-02-24T01:16:57.084Z,1.58
2019-02-24T01:19:26.230Z,1.57
2019-02-24T01:21:55.392Z,1.54
2019-02-24T01:24:24.530Z,1.51
2019-02-24T01:26:53.673Z,1.49
2019-02-24T01:29:22.819Z,1.47
2019-02-24T01:31:51.997Z,1.45
2019-02-24T01:34:21.176Z,1.45
2019-02-24T01:36:50.329Z,1.43
2019-02-24T01:39:19.455Z,1.41
2019-02-24T01:41:48.624Z,1.37
2019-02-24T01:44:17.770Z,1.32
2019-02-24T01:46:46.981Z,1.26
2019-02-24T01:49:16.118Z,1.20
2019-02-24T01:51:45.319Z,1.19
2019-02-24T01:54:14.466Z,1.19
2019-02-24T01:56:43.604Z,1.19
2019-02-24T01:59:12.756Z,1.16
2019-02-24T02:01:41.901Z,1.15
2019-02-24T02:04:11.039Z,1.16
2019-02-24T02:06:40.180Z,1.17
2019-02-24T02:09:09.326Z,1.17
2019-02-24T02:11:38.480Z,1.17
2019-02-24T02:14:07.674Z,1.16
2019-02-24T02:16:36.856Z,1.14
2019-02-24T02:19:06.000Z,1.11
2019-02-24T02:21:35.140Z,1.09
2019-02-24T02:24:04.292Z,1.08
2019-02-24T02:26:33.437Z,1.07
2019-02-24T02:29:02.609Z,1.08
2019-02-24T02:31:31.844Z,1.07
2019-02-24T02:34:01.048Z,1.03
2019-02-24T02:36:30.218Z,1.03
2019-02-24T02:38:59.356Z,1.02
2019-02-24T02:41:28.503Z,1.04
2019-02-24T02:43:57.639Z,1.02
2019-02-24T02:46:26.805Z,0.98
2019-02-24T02:48:55.969Z,0.97
2019-02-24T02:51:25.134Z,0.96
2019-02-24T02:53:54.371Z,0.93
2019-02-24T02:56:23.545Z,0.88
2019-02-24T02:58:54.569Z,0.85
2019-02-24T03:01:23.590Z,0.82
2019-02-24T03:03:52.757Z,0.83
2019-02-24T03:06:44.877Z,0.83
2019-02-24T03:09:14.006Z,0.82
2019-02-24T03:11:43.147Z,0.74
2019-02-24T03:14:12.301Z,0.64
2019-02-24T03:16:41.468Z,0.59
2019-02-24T03:19:10.627Z,0.57
2019-02-24T03:21:39.827Z,0.57
2019-02-24T03:24:08.992Z,0.55
2019-02-24T03:26:38.179Z,0.56
2019-02-24T03:29:07.348Z,0.57
2019-02-24T03:31:36.536Z,0.58
2019-02-24T03:34:05.671Z,0.59
2019-02-24T03:36:34.844Z,0.59
2019-02-24T03:39:04.237Z,0.58
2019-02-24T03:41:33.388Z,0.57
2019-02-24T03:44:02.579Z,0.58
2019-02-24T03:46:31.735Z,0.61
2019-02-24T03:49:00.909Z,0.62
2019-02-24T03:51:30.054Z,0.64
2019-02-24T03:53:59.215Z,0.63
2019-02-24T03:56:28.468Z,0.64
2019-02-24T03:58:57.656Z,0.64
2019-02-24T04:01:26.803Z,0.65
2019-02-24T04:03:56.165Z,0.68
2019-02-24T04:06:25.307Z,0.69
2019-02-24T04:08:54.442Z,0.72
2019-02-24T04:11:23.562Z,0.74
2019-02-24T04:13:52.722Z,0.70
2019-02-24T04:16:24.020Z,0.66
2019-02-24T04:18:53.158Z,0.64
2019-02-24T04:21:22.323Z,0.60
2019-02-24T04:23:51.792Z,0.52
2019-02-24T04:26:20.984Z,0.46
2019-02-24T04:28:50.130Z,0.39
2019-02-24T04:31:19.313Z,0.33
2019-02-24T04:33:48.426Z,0.30
2019-02-24T04:36:17.572Z,0.30
2019-02-24T04:38:46.791Z,0.31
2019-02-24T04:41:15.942Z,0.32
2019-02-24T04:43:45.084Z,0.33
2019-02-24T04:46:14.243Z,0.33
2019-02-24T04:48:43.358Z,0.31
2019-02-24T04:51:12.519Z,0.30
2019-02-24T04:53:41.645Z,0.30
2019-02-24T04:56:10.777Z,0.30
2019-02-24T04:58:39.910Z,0.28
2019-02-24T05:01:10.615Z,0.23
2019-02-24T05:03:39.737Z,0.20
2019-02-24T05:06:08.880Z,0.18
2019-02-24T05:08:37.999Z,0.18
2019-02-24T05:11:07.162Z,0.19
2019-02-24T05:13:36.295Z,0.23
2019-02-24T05:16:05.454Z,0.27
2019-02-24T05:18:34.580Z,0.28
2019-02-24T05:21:03.717Z,0.29
2019-02-24T05:23:32.892Z,0.30
2019-02-24T05:26:02.058Z,0.29
2019-02-24T05:28:31.186Z,0.29
2019-02-24T05:31:00.338Z,0.26
2019-02-24T05:33:29.559Z,0.25
2019-02-24T05:35:58.728Z,0.25
2019-02-24T05:38:27.857Z,0.24
2019-02-24T05:40:56.998Z,0.23
2019-02-24T05:43:26.134Z,0.23
2019-02-24T05:45:55.298Z,0.18
2019-02-24T05:48:24.432Z,0.13
2019-02-24T05:50:53.651Z,0.10
2019-02-24T05:53:22.791Z,0.08
2019-02-24T05:55:51.948Z,0.07
2019-02-24T05:58:21.090Z,0.04
2019-02-24T06:00:50.346Z,0.00
2019-02-24T06:03:19.479Z,-0.01
2019-02-24T06:05:48.627Z,-0.01
2019-02-24T06:08:17.778Z,-0.01
2019-02-24T06:10:46.894Z,0.00
2019-02-24T06:13:16.055Z,0.00
2019-02-24T06:15:45.237Z,0.02
2019-02-24T06:18:14.401Z,0.02
2019-02-24T06:20:43.549Z,0.04
2019-02-24T06:23:12.699Z,0.03
2019-02-24T06:25:41.865Z,0.03
2019-02-24T06:28:11.005Z,0.00
2019-02-24T06:30:40.293Z,-0.01
2019-02-24T06:33:09.433Z,-0.01
2019-02-24T06:35:38.619Z,-0.01
2019-02-24T06:38:07.752Z,-0.02
2019-02-24T06:40:36.980Z,-0.01
2019-02-24T06:43:06.113Z,0.00
2019-02-24T06:45:35.256Z,0.05
2019-02-24T06:48:04.436Z,0.11
2019-02-24T06:50:52.674Z,0.36
2019-02-24T06:53:21.987Z,0.78
2019-02-24T06:55:51.137Z,1.19
2019-02-24T06:58:20.282Z,1.82
2019-02-24T07:00:49.419Z,2.79
2019-02-24T07:03:19.276Z,3.97
2019-02-24T07:05:48.448Z,5.35
2019-02-24T07:08:17.630Z,6.20
2019-02-24T07:10:46.765Z,6.13
2019-02-24T07:13:15.943Z,6.10
2019-02-24T07:15:45.103Z,6.61
2019-02-24T07:18:14.255Z,7.52
2019-02-24T07:20:43.490Z,8.22
2019-02-24T07:23:12.621Z,8.35
2019-02-24T07:25:41.768Z,8.66
2019-02-24T07:28:14.001Z,9.06
2019-02-24T07:30:43.138Z,9.63
2019-02-24T07:33:12.537Z,10.56
2019-02-24T07:35:41.707Z,11.73
2019-02-24T07:38:10.877Z,12.92
2019-02-24T07:40:40.032Z,13.82
2019-02-24T07:43:09.242Z,14.36
2019-02-24T07:45:38.368Z,14.35
2019-02-24T07:48:07.554Z,14.51
2019-02-24T07:50:36.693Z,14.49
2019-02-24T07:53:06.052Z,14.84
2019-02-24T07:55:35.214Z,15.10
2019-02-24T07:58:04.348Z,15.34
2019-02-24T08:00:33.486Z,15.22
2019-02-24T08:03:02.656Z,15.00
2019-02-24T08:05:31.896Z,14.61
2019-02-24T08:08:02.517Z,14.40
2019-02-24T08:10:31.744Z,14.23
2019-02-24T08:13:00.916Z,14.06
2019-02-24T08:15:30.148Z,13.93
2019-02-24T08:17:59.339Z,14.35
2019-02-24T08:20:28.479Z,14.93
2019-02-24T08:22:57.717Z,15.28
2019-02-24T08:25:26.975Z,15.43
2019-02-24T08:27:56.150Z,15.58
2019-02-24T08:30:25.317Z,15.86
2019-02-24T08:32:54.527Z,16.51
2019-02-24T08:35:23.715Z,16.94
2019-02-24T08:37:52.967Z,17.01
2019-02-24T08:40:22.137Z,17.35
2019-02-24T08:42:51.325Z,17.66
2019-02-24T08:45:20.519Z,17.91
2019-02-24T08:47:49.667Z,18.22
2019-02-24T08:50:18.840Z,18.39
2019-02-24T08:52:47.997Z,18.52
2019-02-24T08:55:17.170Z,18.76
2019-02-24T08:57:46.414Z,18.92
2019-02-24T09:00:15.600Z,19.20
2019-02-24T09:02:44.824Z,19.44
2019-02-24T09:05:14.150Z,19.89
2019-02-24T09:07:43.354Z,20.40
2019-02-24T09:10:12.482Z,20.83
2019-02-24T09:12:41.845Z,21.02
2019-02-24T09:15:11.165Z,21.36
2019-02-24T09:17:40.380Z,21.90
2019-02-24T09:20:10.122Z,22.10
2019-02-24T09:22:39.276Z,22.24
2019-02-24T09:25:08.841Z,22.52
2019-02-24T09:27:38.185Z,22.68
2019-02-24T09:30:08.383Z,22.83
2019-02-24T09:32:37.787Z,22.95
2019-02-24T09:35:07.930Z,23.12
2019-02-24T09:37:37.065Z,22.61
2019-02-24T09:40:07.493Z,21.94
2019-02-24T09:42:36.701Z,22.16
2019-02-24T09:45:06.549Z,22.36
2019-02-24T09:47:35.733Z,22.40
2019-02-24T09:50:05.057Z,21.81
2019-02-24T09:52:34.221Z,21.52
2019-02-24T09:55:03.404Z,21.58
2019-02-24T09:57:32.572Z,21.54
2019-02-24T10:00:01.820Z,21.45
2019-02-24T10:02:31.069Z,21.03
2019-02-24T10:05:00.278Z,21.07
2019-02-24T10:07:29.449Z,20.81
2019-02-24T10:09:58.705Z,20.67
2019-02-24T10:12:27.960Z,20.70
2019-02-24T10:14:57.147Z,20.56
2019-02-24T10:17:26.349Z,20.44
2019-02-24T10:19:55.562Z,20.57
2019-02-24T10:22:24.826Z,20.74
2019-02-24T10:24:54.338Z,20.75
2019-02-24T10:27:23.487Z,20.66
2019-02-24T10:29:52.683Z,20.59
2019-02-24T10:32:21.866Z,20.51
2019-02-24T10:34:51.389Z,20.65
2019-02-24T10:37:20.734Z,20.58
2019-02-24T10:39:49.906Z,20.62
2019-02-24T10:42:20.028Z,20.44
2019-02-24T10:44:49.204Z,19.90
2019-02-24T10:47:18.417Z,19.70
2019-02-24T10:49:47.776Z,19.44
2019-02-24T10:52:17.209Z,18.93
2019-02-24T10:54:46.671Z,18.61
2019-02-24T10:57:16.114Z,18.63
2019-02-24T10:59:45.403Z,18.77
2019-02-24T11:02:14.556Z,18.69
2019-02-24T11:04:43.791Z,18.69
2019-02-24T11:07:12.981Z,18.57
2019-02-24T11:09:42.186Z,18.36
2019-02-24T11:12:11.368Z,18.27
2019-02-24T11:14:40.560Z,18.19
2019-02-24T11:17:09.736Z,18.07
2019-02-24T11:19:39.002Z,17.75
2019-02-24T11:22:08.216Z,17.48
2019-02-24T11:24:37.416Z,17.58
2019-02-24T11:27:06.578Z,17.53
2019-02-24T11:29:35.782Z,17.55
2019-02-24T11:32:04.942Z,17.62
2019-02-24T11:34:34.229Z,17.53
2019-02-24T11:37:03.439Z,17.38
2019-02-24T11:39:32.667Z,17.34
2019-02-24T11:42:01.825Z,17.31
2019-02-24T11:44:31.046Z,17.30
2019-02-24T11:47:00.223Z,17.31
2019-02-24T11:49:29.409Z,17.32
2019-02-24T11:52:03.803Z,17.42
2019-02-24T11:54:29.451Z,17.46
2019-02-24T11:56:58.719Z,17.50
2019-02-24T11:59:27.887Z,17.62
2019-02-24T12:01:57.097Z,17.71
2019-02-24T12:04:26.270Z,17.74
2019-02-24T12:06:55.488Z,17.81
2019-02-24T12:09:24.646Z,17.88
2019-02-24T12:11:53.806Z,17.92
2019-02-24T12:14:23.013Z,17.87
2019-02-24T12:16:52.276Z,17.73
2019-02-24T12:19:21.569Z,17.73
2019-02-24T12:21:50.780Z,17.56
2019-02-24T12:24:20.022Z,17.46
2019-02-24T12:26:49.182Z,17.42
2019-02-24T12:29:18.343Z,17.47
2019-02-24T12:31:56.177Z,17.47
2019-02-24T12:34:18.426Z,17.40
2019-02-24T12:36:47.595Z,17.39
2019-02-24T12:39:16.754Z,17.35
2019-02-24T12:41:45.901Z,17.41
2019-02-24T12:44:15.053Z,17.49
2019-02-24T12:46:44.266Z,17.59
2019-02-24T12:49:13.438Z,17.75
2019-02-24T12:51:42.612Z,17.84
2019-02-24T12:54:11.781Z,17.90
2019-02-24T12:56:40.956Z,17.95
2019-02-24T12:59:11.933Z,17.94
2019-02-24T13:01:41.302Z,17.99
2019-02-24T13:04:10.528Z,18.10
2019-02-24T13:06:39.785Z,18.11
2019-02-24T13:09:10.357Z,18.18
2019-02-24T13:11:39.510Z,18.22
2019-02-24T13:14:08.887Z,18.24
2019-02-24T13:16:38.101Z,18.24
2019-02-24T13:19:07.231Z,18.31
2019-02-24T13:21:36.489Z,18.13
2019-02-24T13:24:05.813Z,18.06
2019-02-24T13:26:35.132Z,17.99
2019-02-24T13:29:04.295Z,18.00
2019-02-24T13:31:33.428Z,17.94
2019-02-24T13:34:02.628Z,17.89
2019-02-24T13:36:31.820Z,18.07
2019-02-24T13:39:00.928Z,18.27
2019-02-24T13:41:30.176Z,18.31
2019-02-24T13:43:59.350Z,18.35
2019-02-24T13:46:28.496Z,18.35
2019-02-24T13:48:57.658Z,18.36
2019-02-24T13:51:26.834Z,18.33
2019-02-24T13:53:56.012Z,18.29
2019-02-24T13:56:25.265Z,18.25
2019-02-24T13:58:54.416Z,18.30
2019-02-24T14:01:23.591Z,18.21
2019-02-24T14:03:52.921Z,18.19
2019-02-24T14:06:22.059Z,18.11
2019-02-24T14:08:51.249Z,17.96
2019-02-24T14:11:20.401Z,17.82
2019-02-24T14:13:49.541Z,17.80
2019-02-24T14:16:18.680Z,17.78
2019-02-24T14:18:47.851Z,17.68
2019-02-24T14:21:19.739Z,17.72
2019-02-24T14:23:48.923Z,17.74
2019-02-24T14:26:19.753Z,17.80
2019-02-24T14:28:49.080Z,17.87
2019-02-24T14:31:18.251Z,17.95
2019-02-24T14:33:47.476Z,17.99
2019-02-24T14:36:16.615Z,17.96
2019-02-24T14:38:45.761Z,18.00
2019-02-24T14:41:14.926Z,18.01
2019-02-24T14:43:44.068Z,18.00
2019-02-24T14:46:13.270Z,18.02
2019-02-24T14:48:44.720Z,18.06
2019-02-24T14:51:13.614Z,18.07
2019-02-24T14:53:42.774Z,18.05
2019-02-24T14:56:11.942Z,18.05
2019-02-24T14:58:41.166Z,18.01
2019-02-24T15:01:10.351Z,17.99
2019-02-24T15:03:39.517Z,17.99
2019-02-24T15:06:08.691Z,18.01
2019-02-24T15:08:37.889Z,18.01
2019-02-24T15:11:07.189Z,17.99
2019-02-24T15:13:36.386Z,17.91
2019-02-24T15:16:05.645Z,17.87
2019-02-24T15:18:34.890Z,17.85
2019-02-24T15:21:04.075Z,17.86
2019-02-24T15:23:33.313Z,17.84
2019-02-24T15:26:02.479Z,17.79
2019-02-24T15:28:31.677Z,17.75
2019-02-24T15:31:00.808Z,17.69
2019-02-24T15:33:29.975Z,17.52
2019-02-24T15:35:59.109Z,17.43
2019-02-24T15:38:28.294Z,17.34
2019-02-24T15:40:57.462Z,17.27
2019-02-24T15:43:26.661Z,17.18
2019-02-24T15:45:55.887Z,17.09
2019-02-24T15:48:25.156Z,16.99
2019-02-24T15:50:54.338Z,16.90
2019-02-24T15:53:24.410Z,16.77
2019-02-24T15:55:53.750Z,16.62
2019-02-24T15:58:22.997Z,16.45
2019-02-24T16:00:52.166Z,16.30
2019-02-24T16:03:21.424Z,16.14
2019-02-24T16:05:50.587Z,16.02
2019-02-24T16:08:19.825Z,15.89
2019-02-24T16:10:49.135Z,15.76
2019-02-24T16:13:18.295Z,15.66
2019-02-24T16:15:47.619Z,15.54
2019-02-24T16:18:16.796Z,15.38
2019-02-24T16:20:46.091Z,15.28
2019-02-24T16:23:15.385Z,15.11
2019-02-24T16:25:44.985Z,14.92
2019-02-24T16:28:14.219Z,14.78
2019-02-24T16:30:45.854Z,14.63
2019-02-24T16:33:15.208Z,14.45
2019-02-24T16:35:44.540Z,14.28
2019-02-24T16:38:13.735Z,14.16
2019-02-24T16:40:42.953Z,13.99
2019-02-24T16:43:12.258Z,13.85
2019-02-24T16:45:41.966Z,13.74
2019-02-24T16:48:11.217Z,13.63
2019-02-24T16:50:42.600Z,13.51
2019-02-24T16:53:11.860Z,13.42
2019-02-24T16:55:41.089Z,13.32
2019-02-24T16:58:10.292Z,13.21
2019-02-24T17:00:39.609Z,13.07
2019-02-24T17:03:09.167Z,12.93
2019-02-24T17:05:38.654Z,12.79
2019-02-24T17:08:08.268Z,11.79
2019-02-24T17:10:37.782Z,12.59
2019-02-24T17:13:07.029Z,12.52
2019-02-24T17:15:36.197Z,12.35
2019-02-24T17:18:05.382Z,12.19
2019-02-24T17:20:34.566Z,12.03
2019-02-24T17:23:03.886Z,11.90
2019-02-24T17:25:33.077Z,11.77
2019-02-24T17:28:02.378Z,11.68
2019-02-24T17:30:31.708Z,11.55
2019-02-24T17:33:01.011Z,11.46
2019-02-24T17:35:30.329Z,11.36
2019-02-24T17:37:59.648Z,11.25
2019-02-24T17:40:28.858Z,11.16
2019-02-24T17:42:58.193Z,11.05
2019-02-24T17:45:27.632Z,10.92
2019-02-24T17:47:57.214Z,10.77
2019-02-24T17:50:27.122Z,10.65
2019-02-24T17:52:56.684Z,10.57
2019-02-24T17:55:26.059Z,10.45
2019-02-24T17:57:56.012Z,10.38
2019-02-24T18:00:29.379Z,10.31
2019-02-24T18:02:59.404Z,10.29
2019-02-24T18:05:28.712Z,10.22
2019-02-24T18:08:00.502Z,10.15
2019-02-24T18:10:30.033Z,10.06
2019-02-24T18:12:59.218Z,9.95
2019-02-24T18:15:28.664Z,9.84
2019-02-24T18:17:57.913Z,9.78
2019-02-24T18:20:27.179Z,9.72
2019-02-24T18:22:56.837Z,9.63
2019-02-24T18:25:26.174Z,9.54
2019-02-24T18:27:55.631Z,9.43
2019-02-24T18:30:25.093Z,9.27
2019-02-24T18:32:54.593Z,9.17
2019-02-24T18:35:23.791Z,9.10
2019-02-24T18:37:53.512Z,9.07
2019-02-24T18:40:23.415Z,9.01
2019-02-24T18:42:59.608Z,8.94
2019-02-24T18:45:25.223Z,8.88
2019-02-24T18:47:54.727Z,8.81
2019-02-24T18:50:25.272Z,8.71
2019-02-24T18:52:54.711Z,8.65
2019-02-24T18:55:24.391Z,8.60
2019-02-24T18:57:55.985Z,8.59
2019-02-24T19:00:26.164Z,8.53
2019-02-24T19:02:55.775Z,8.45
2019-02-24T19:05:26.203Z,8.39
2019-02-24T19:07:55.610Z,8.35
2019-02-24T19:10:25.696Z,8.32
2019-02-24T19:12:55.911Z,8.24
2019-02-24T19:15:25.418Z,8.13
2019-02-24T19:17:55.207Z,8.08
2019-02-24T19:20:25.576Z,8.02
2019-02-24T19:22:55.651Z,7.92
2019-02-24T19:25:25.121Z,7.88
2019-02-24T19:27:54.761Z,7.82
2019-02-24T19:30:25.989Z,7.73
2019-02-24T19:32:55.726Z,7.68
2019-02-24T19:35:25.647Z,7.62
2019-02-24T19:37:55.196Z,7.52
2019-02-24T19:40:25.082Z,7.45
2019-02-24T19:42:54.490Z,7.40
2019-02-24T19:45:24.689Z,7.35
2019-02-24T19:47:54.615Z,7.32
2019-02-24T19:50:24.708Z,7.28
2019-02-24T19:52:54.191Z,7.22
2019-02-24T19:55:24.311Z,7.19
2019-02-24T19:57:53.956Z,7.19
2019-02-24T20:00:23.384Z,7.15
2019-02-24T20:02:52.903Z,7.10
2019-02-24T20:05:22.495Z,7.04
2019-02-24T20:07:52.213Z,7.01
2019-02-24T20:10:22.058Z,6.96
2019-02-24T20:12:51.396Z,6.94
2019-02-24T20:15:21.388Z,6.87
2019-02-24T20:17:51.232Z,6.77
2019-02-24T20:20:20.725Z,6.70
2019-02-24T20:22:50.670Z,6.66
2019-02-24T20:25:20.097Z,6.63
2019-02-24T20:27:49.559Z,6.61
2019-02-24T20:30:24.793Z,6.59
2019-02-24T20:32:54.322Z,6.52
2019-02-24T20:35:23.658Z,6.46
2019-02-24T20:37:55.031Z,6.42
2019-02-24T20:40:24.661Z,6.41
2019-02-24T20:42:54.181Z,6.38
2019-02-24T20:45:23.667Z,6.37
2019-02-24T20:47:53.596Z,6.33
2019-02-24T20:50:23.571Z,6.27
2019-02-24T20:52:53.453Z,6.20
2019-02-24T20:55:23.097Z,6.15
2019-02-24T20:57:52.532Z,6.12
2019-02-24T21:00:27.864Z,6.09
2019-02-24T21:02:57.291Z,6.03
2019-02-24T21:05:26.813Z,5.97
2019-02-24T21:07:56.106Z,5.94
2019-02-24T21:10:26.686Z,5.91
2019-02-24T21:12:55.951Z,5.88
2019-02-24T21:15:25.781Z,5.83
2019-02-24T21:17:55.089Z,5.82
2019-02-24T21:20:26.284Z,5.81
2019-02-24T21:22:55.448Z,5.80
2019-02-24T21:25:24.711Z,5.81
2019-02-24T21:27:54.002Z,5.81
2019-02-24T21:30:23.376Z,5.76
2019-02-24T21:32:52.523Z,5.66
2019-02-24T21:35:22.710Z,5.48
2019-02-24T21:37:51.966Z,5.33
2019-02-24T21:40:23.450Z,5.26
2019-02-24T21:42:52.392Z,5.27
2019-02-24T21:45:23.219Z,5.29
2019-02-24T21:47:52.473Z,5.31
2019-02-24T21:50:21.846Z,5.30
2019-02-24T21:52:51.104Z,5.30
2019-02-24T21:55:20.221Z,5.31
2019-02-24T21:57:49.534Z,5.32
2019-02-24T22:00:20.144Z,5.32
2019-02-24T22:02:49.383Z,5.32
2019-02-24T22:05:18.581Z,5.35
2019-02-24T22:07:47.755Z,5.34
2019-02-24T22:10:17.517Z,5.29
2019-02-24T22:12:46.685Z,5.25
2019-02-24T22:15:17.390Z,5.21
2019-02-24T22:17:46.619Z,5.19
2019-02-24T22:20:16.410Z,5.13
2019-02-24T22:22:45.589Z,5.09
2019-02-24T22:25:14.898Z,5.02
2019-02-24T22:27:44.404Z,4.98
2019-02-24T22:30:14.698Z,4.97
2019-02-24T22:32:43.876Z,4.95
2019-02-24T22:35:13.049Z,4.90
2019-02-24T22:37:42.202Z,4.87
2019-02-24T22:40:11.884Z,4.84
2019-02-24T22:42:41.058Z,4.81
2019-02-24T22:45:12.478Z,4.79
2019-02-24T22:47:41.675Z,4.76
2019-02-24T22:50:10.832Z,4.73
2019-02-24T22:52:39.986Z,4.71
2019-02-24T22:55:10.025Z,4.68
2019-02-24T22:57:39.267Z,4.60
2019-02-24T23:00:28.955Z,4.55
2019-02-24T23:02:58.107Z,4.52
2019-02-24T23:05:27.241Z,4.50
2019-02-24T23:07:56.398Z,4.51
2019-02-24T23:10:25.527Z,4.49
2019-02-24T23:12:54.660Z,4.47
2019-02-24T23:15:23.922Z,4.45
2019-02-24T23:17:53.055Z,4.41
2019-02-24T23:20:22.172Z,4.31
2019-02-24T23:22:51.306Z,4.22
2019-02-24T23:25:20.450Z,4.17
2019-02-24T23:27:49.583Z,4.16
2019-02-24T23:30:18.714Z,4.14
2019-02-24T23:32:47.885Z,4.11
2019-02-24T23:35:17.030Z,4.10
2019-02-24T23:37:46.152Z,4.11
2019-02-24T23:40:15.302Z,4.09
2019-02-24T23:42:44.450Z,4.07
2019-02-24T23:45:13.693Z,4.06
2019-02-24T23:47:42.822Z,4.04
2019-02-24T23:50:11.947Z,4.00
2019-02-24T23:52:41.189Z,3.98
2019-02-24T23:55:10.446Z,3.95
2019-02-24T23:57:39.631Z,3.90
